Time;durP1;ratioP1;P1;durP2;ratioP2;P2;SDS_P1;SDS_P2;PMS_P1;PMS_P2;Temp;Humidity;BMP_temperature;BMP_pressure;BME280_temperature;BME280_humidity;BME280_pressure;Samples;Min_cycle;Max_cycle;Signal;HPM_P1;HPM_P2
2023/06/07 00:01:54;;;;;;;13.38;4.55;;;13.90;99.90;;;;;;5012771;28;20137;-80
2023/06/07 00:04:19;;;;;;;9.50;3.58;;;12.10;99.90;;;;;;4995140;28;20042;-79
2023/06/07 00:06:45;;;;;;;7.55;3.70;;;12.10;99.90;;;;;;5012192;28;20037;-82
2023/06/07 00:09:11;;;;;;;8.63;3.45;;;12.10;99.90;;;;;;5012826;28;20042;-80
2023/06/07 00:11:37;;;;;;;10.85;4.38;;;12.80;99.90;;;;;;4994524;28;20045;-81
2023/06/07 00:14:03;;;;;;;9.82;3.67;;;12.00;99.90;;;;;;5012805;28;20046;-82
2023/06/07 00:16:29;;;;;;;11.32;4.45;;;12.00;99.90;;;;;;4994921;28;20255;-82
2023/06/07 00:18:55;;;;;;;9.68;4.63;;;12.50;99.90;;;;;;5012421;28;20041;-81
2023/06/07 00:21:22;;;;;;;10.38;4.28;;;11.90;99.90;;;;;;5011647;28;20167;-83
2023/06/07 00:23:48;;;;;;;8.52;3.90;;;13.40;99.90;;;;;;5012071;28;20049;-84
2023/06/07 00:26:14;;;;;;;11.10;4.05;;;11.90;99.90;;;;;;5012674;28;20042;-84
2023/06/07 00:28:39;;;;;;;13.52;3.97;;;11.90;99.90;;;;;;5011628;28;20041;-84
2023/06/07 00:31:05;;;;;;;9.38;4.20;;;12.40;99.90;;;;;;5012819;28;20081;-81
2023/06/07 00:33:31;;;;;;;10.40;3.70;;;11.90;99.90;;;;;;5012138;28;20054;-80
2023/06/07 00:35:56;;;;;;;8.80;3.67;;;11.80;99.90;;;;;;5012199;28;20044;-80
2023/06/07 00:38:25;;;;;;;9.57;4.15;;;12.60;99.90;;;;;;5012064;28;20049;-81
2023/06/07 00:40:51;;;;;;;16.70;4.43;;;12.00;99.90;;;;;;5012989;28;20049;-82
2023/06/07 00:43:17;;;;;;;10.18;4.40;;;11.80;99.90;;;;;;4995312;28;20044;-81
2023/06/07 00:45:42;;;;;;;12.65;4.30;;;11.10;99.90;;;;;;5019172;28;20045;-81
2023/06/07 00:48:08;;;;;;;11.65;4.15;;;11.80;99.90;;;;;;5022721;28;20034;-81
2023/06/07 00:50:34;;;;;;;10.30;4.07;;;12.70;99.90;;;;;;5014188;28;20034;-84
2023/06/07 00:53:01;;;;;;;10.38;4.15;;;12.00;99.90;;;;;;5012097;28;20046;-82
2023/06/07 00:55:27;;;;;;;11.45;4.13;;;12.40;99.90;;;;;;5011773;28;20053;-79
2023/06/07 00:57:53;;;;;;;10.20;4.18;;;11.80;99.90;;;;;;5011247;28;20050;-81
2023/06/07 01:00:20;;;;;;;10.95;4.50;;;11.80;99.90;;;;;;5012252;28;20078;-79
2023/06/07 01:02:47;;;;;;;9.88;4.43;;;11.80;99.90;;;;;;5009736;28;20064;-84
2023/06/07 01:05:17;;;;;;;8.65;4.38;;;11.80;99.90;;;;;;5012681;28;20044;-81
2023/06/07 01:07:48;;;;;;;9.50;3.85;;;11.80;99.90;;;;;;4993939;28;20133;-80
2023/06/07 01:10:14;;;;;;;12.27;4.63;;;11.70;99.90;;;;;;5011171;28;20084;-82
2023/06/07 01:12:44;;;;;;;12.48;5.32;;;11.70;99.90;;;;;;5011479;28;20104;-83
2023/06/07 01:15:12;;;;;;;9.73;3.90;;;11.70;99.90;;;;;;5011764;28;20034;-84
2023/06/07 01:17:44;;;;;;;13.43;4.25;;;11.70;99.90;;;;;;5010389;28;20056;-84
2023/06/07 01:20:22;;;;;;;13.23;4.88;;;11.70;99.90;;;;;;5011949;28;20042;-81
2023/06/07 01:22:51;;;;;;;13.52;4.88;;;11.80;99.90;;;;;;5006733;28;20096;-83
2023/06/07 01:25:16;;;;;;;7.38;4.15;;;11.70;99.90;;;;;;5010795;28;20519;-83
2023/06/07 01:27:45;;;;;;;11.43;4.30;;;11.70;99.90;;;;;;5010681;28;20038;-82
2023/06/07 01:30:13;;;;;;;15.43;4.82;;;13.60;99.90;;;;;;5011466;28;20344;-84
2023/06/07 01:32:41;;;;;;;22.48;5.47;;;11.70;99.90;;;;;;5010397;28;20180;-83
2023/06/07 01:35:09;;;;;;;8.95;4.22;;;11.70;99.90;;;;;;4993703;28;20104;-81
2023/06/07 01:37:36;;;;;;;15.45;4.97;;;11.70;99.90;;;;;;5010602;28;20410;-81
2023/06/07 01:40:04;;;;;;;10.90;4.05;;;12.80;99.90;;;;;;5010886;28;20077;-80
2023/06/07 01:42:30;;;;;;;13.27;4.20;;;11.70;99.90;;;;;;5011059;28;20037;-80
2023/06/07 01:44:59;;;;;;;13.52;4.30;;;13.50;99.90;;;;;;5014294;28;20057;-80
2023/06/07 01:47:29;;;;;;;14.07;4.18;;;11.60;99.90;;;;;;4994474;28;20408;-82
2023/06/07 01:49:57;;;;;;;11.93;4.32;;;11.60;99.90;;;;;;5010886;28;20677;-81
2023/06/07 01:52:23;;;;;;;11.07;3.92;;;11.70;99.90;;;;;;5009832;28;20057;-80
2023/06/07 01:54:49;;;;;;;16.63;4.70;;;13.60;99.90;;;;;;4993301;28;20112;-81
2023/06/07 01:57:24;;;;;;;11.65;4.15;;;11.60;99.90;;;;;;5010871;28;20573;-80
2023/06/07 02:00:26;;;;;;;15.50;4.43;;;11.60;99.90;;;;;;5002441;28;20045;-80
2023/06/07 02:03:16;;;;;;;10.52;4.03;;;11.60;99.90;;;;;;4985601;28;20046;-83
2023/06/07 02:05:47;;;;;;;11.07;4.88;;;10.80;99.90;;;;;;5010433;28;20111;-82
2023/06/07 02:08:23;;;;;;;11.77;4.25;;;11.70;99.90;;;;;;4992936;28;20037;-83
2023/06/07 02:10:51;;;;;;;10.85;4.18;;;11.70;99.90;;;;;;4984966;28;20274;-81
2023/06/07 02:13:19;;;;;;;10.68;4.68;;;11.70;99.90;;;;;;4991837;28;20034;-80
2023/06/07 02:15:45;;;;;;;14.63;4.20;;;11.70;99.90;;;;;;5010335;28;20048;-81
2023/06/07 02:18:12;;;;;;;12.07;4.22;;;11.70;99.90;;;;;;5010535;28;20485;-82
2023/06/07 02:20:38;;;;;;;13.30;4.90;;;11.70;99.90;;;;;;5009917;28;20045;-83
2023/06/07 02:23:04;;;;;;;17.48;4.38;;;11.70;99.90;;;;;;5010587;28;20033;-80
2023/06/07 02:25:34;;;;;;;13.45;4.20;;;11.70;99.90;;;;;;4992529;28;20046;-80
2023/06/07 02:28:00;;;;;;;7.63;4.05;;;11.70;99.90;;;;;;5010025;28;20048;-80
2023/06/07 02:30:25;;;;;;;15.77;4.50;;;11.90;99.90;;;;;;4992464;28;20041;-81
2023/06/07 02:32:54;;;;;;;12.88;4.38;;;11.60;99.90;;;;;;5010675;28;20276;-80
2023/06/07 02:35:21;;;;;;;11.93;3.78;;;11.70;99.90;;;;;;5012466;28;20046;-79
2023/06/07 02:37:47;;;;;;;10.43;3.63;;;11.70;99.90;;;;;;4987660;28;20045;-80
2023/06/07 02:40:14;;;;;;;10.90;4.65;;;13.00;99.90;;;;;;5018662;28;20038;-82
2023/06/07 02:42:47;;;;;;;22.85;5.07;;;11.70;99.90;;;;;;4991740;28;20355;-80
2023/06/07 02:45:13;;;;;;;14.70;4.13;;;11.70;99.90;;;;;;5010406;28;20073;-81
2023/06/07 02:47:39;;;;;;;16.95;4.47;;;11.70;99.90;;;;;;4991775;28;20131;-80
2023/06/07 02:50:06;;;;;;;10.90;4.05;;;11.70;99.90;;;;;;5009011;28;20533;-80
2023/06/07 02:52:33;;;;;;;11.57;4.05;;;11.70;99.90;;;;;;5008765;28;20551;-80
2023/06/07 02:55:02;;;;;;;11.65;4.00;;;12.20;99.90;;;;;;5009720;28;20132;-82
2023/06/07 02:57:27;;;;;;;13.05;4.13;;;11.70;99.90;;;;;;5009293;28;20120;-81
2023/06/07 02:59:53;;;;;;;13.02;4.07;;;11.80;99.90;;;;;;5009370;28;20494;-81
2023/06/07 03:02:19;;;;;;;9.95;3.83;;;12.60;99.90;;;;;;5009499;28;20042;-84
2023/06/07 03:04:46;;;;;;;13.98;4.68;;;11.80;99.90;;;;;;4976207;28;20116;-84
2023/06/07 03:07:12;;;;;;;11.95;3.80;;;11.80;99.90;;;;;;5009907;28;20478;-82
2023/06/07 03:09:38;;;;;;;11.23;3.63;;;13.20;99.90;;;;;;5009085;28;20140;-84
2023/06/07 03:12:05;;;;;;;10.25;4.38;;;11.80;99.90;;;;;;5009335;28;20048;-82
2023/06/07 03:14:30;;;;;;;11.25;3.85;;;11.80;99.90;;;;;;5009267;28;20038;-84
2023/06/07 03:16:56;;;;;;;11.77;3.58;;;11.80;99.90;;;;;;5008955;28;20053;-82
2023/06/07 03:19:21;;;;;;;9.02;3.55;;;11.80;99.90;;;;;;5008921;28;20081;-81
2023/06/07 03:21:47;;;;;;;10.25;3.85;;;11.90;99.90;;;;;;5008733;28;20057;-82
2023/06/07 03:24:14;;;;;;;10.93;3.85;;;12.30;99.90;;;;;;5008945;28;20389;-83
2023/06/07 03:26:40;;;;;;;11.07;3.70;;;13.60;99.90;;;;;;4990534;28;20046;-83
2023/06/07 03:29:06;;;;;;;12.15;3.53;;;11.80;99.90;;;;;;4991824;28;20396;-81
2023/06/07 03:31:32;;;;;;;14.88;4.75;;;11.90;99.90;;;;;;4990291;28;20046;-80
2023/06/07 03:33:58;;;;;;;13.13;3.40;;;11.90;99.90;;;;;;5009931;28;20363;-80
2023/06/07 03:36:28;;;;;;;9.25;2.90;;;13.10;99.90;;;;;;5009343;28;20263;-81
2023/06/07 03:38:58;;;;;;;12.05;4.00;;;11.90;99.90;;;;;;5000435;28;20097;-80
2023/06/07 03:41:23;;;;;;;11.70;3.10;;;12.90;99.90;;;;;;5008779;28;20061;-81
2023/06/07 03:43:49;;;;;;;9.60;4.00;;;13.10;99.90;;;;;;5009084;28;20073;-82
2023/06/07 03:46:15;;;;;;;14.57;4.22;;;12.00;99.90;;;;;;4991039;28;20096;-83
2023/06/07 03:48:40;;;;;;;13.73;3.00;;;12.00;99.90;;;;;;5009001;28;20038;-82
2023/06/07 03:51:06;;;;;;;12.98;4.03;;;12.30;99.90;;;;;;4991561;28;20430;-80
2023/06/07 03:53:32;;;;;;;11.85;4.47;;;11.90;99.90;;;;;;5007864;28;20103;-80
2023/06/07 03:55:58;;;;;;;10.55;3.65;;;12.40;99.90;;;;;;5009323;28;20034;-85
2023/06/07 03:58:24;;;;;;;13.10;3.42;;;12.00;99.90;;;;;;5008171;28;20056;-82
2023/06/07 04:00:51;;;;;;;15.38;3.65;;;12.50;99.90;;;;;;5008806;28;20058;-81
2023/06/07 04:03:21;;;;;;;12.35;3.53;;;13.10;99.90;;;;;;5008995;28;20413;-83
2023/06/07 04:05:47;;;;;;;12.10;3.80;;;12.00;99.90;;;;;;5008045;28;20053;-81
2023/06/07 04:08:13;;;;;;;12.73;3.60;;;12.00;99.90;;;;;;4975509;28;20048;-85
2023/06/07 04:10:41;;;;;;;12.50;3.47;;;12.40;99.90;;;;;;4990807;28;20042;-84
2023/06/07 04:13:06;;;;;;;16.48;3.95;;;13.30;99.90;;;;;;5008271;28;20705;-82
2023/06/07 04:15:32;;;;;;;12.90;3.83;;;12.10;99.90;;;;;;5008328;28;20125;-81
2023/06/07 04:17:57;;;;;;;12.80;4.00;;;12.10;99.90;;;;;;5009470;28;20046;-83
2023/06/07 04:20:23;;;;;;;14.52;4.32;;;12.10;99.90;;;;;;5008254;28;20058;-85
2023/06/07 04:22:51;;;;;;;16.58;3.90;;;12.10;99.90;;;;;;5008767;28;20075;-81
2023/06/07 04:25:17;;;;;;;11.98;3.40;;;12.80;99.90;;;;;;4992026;28;20453;-84
2023/06/07 04:27:46;;;;;;;19.48;4.43;;;12.10;99.90;;;;;;5015182;28;20042;-81
2023/06/07 04:30:12;;;;;;;10.98;3.08;;;12.10;99.90;;;;;;5002400;28;20062;-84
2023/06/07 04:32:39;;;;;;;13.38;3.47;;;12.10;99.90;;;;;;5011842;28;20061;-82
2023/06/07 04:35:05;;;;;;;7.15;3.08;;;12.10;99.90;;;;;;5009934;28;20092;-80
2023/06/07 04:37:31;;;;;;;13.82;3.85;;;12.10;99.90;;;;;;5012316;28;20049;-81
2023/06/07 04:39:57;;;;;;;13.63;3.67;;;12.20;99.90;;;;;;4996651;28;20553;-80
2023/06/07 04:42:23;;;;;;;9.02;3.35;;;12.20;99.90;;;;;;5011390;28;20125;-83
2023/06/07 04:44:52;;;;;;;10.75;3.47;;;13.50;99.90;;;;;;4995694;28;20049;-84
2023/06/07 04:47:18;;;;;;;15.55;4.18;;;12.20;99.90;;;;;;5013773;28;20088;-81
2023/06/07 04:49:44;;;;;;;17.80;4.35;;;12.60;99.90;;;;;;4996299;28;20075;-84
2023/06/07 04:52:13;;;;;;;13.90;4.68;;;14.00;99.90;;;;;;5013005;28;20758;-81
2023/06/07 04:54:40;;;;;;;12.98;3.55;;;12.20;99.90;;;;;;4995391;28;20218;-82
2023/06/07 04:57:09;;;;;;;10.55;3.03;;;12.20;99.90;;;;;;4981275;28;20049;-81
2023/06/07 04:59:42;;;;;;;9.55;3.38;;;12.30;99.90;;;;;;5013303;28;20042;-80
2023/06/07 05:02:08;;;;;;;15.47;3.40;;;12.30;99.90;;;;;;5021063;28;20087;-82
2023/06/07 05:04:34;;;;;;;11.00;3.30;;;12.30;99.90;;;;;;5013986;28;20034;-81
2023/06/07 05:07:00;;;;;;;10.15;3.17;;;12.30;99.90;;;;;;5012888;28;20524;-83
2023/06/07 05:09:26;;;;;;;11.85;3.28;;;12.30;99.90;;;;;;4993748;28;20501;-81
2023/06/07 05:11:52;;;;;;;10.48;3.00;;;12.30;99.90;;;;;;5011587;28;20080;-84
2023/06/07 05:14:18;;;;;;;12.57;2.72;;;12.30;99.90;;;;;;5012428;28;20042;-83
2023/06/07 05:16:44;;;;;;;18.13;3.15;;;13.50;99.90;;;;;;5010866;28;20042;-82
2023/06/07 05:19:13;;;;;;;11.32;3.67;;;12.30;99.90;;;;;;5011700;28;20042;-81
2023/06/07 05:21:39;;;;;;;16.60;3.85;;;12.30;99.90;;;;;;5010914;28;20046;-81
2023/06/07 05:24:05;;;;;;;9.93;2.88;;;12.30;99.90;;;;;;5011065;28;20065;-81
2023/06/07 05:26:30;;;;;;;13.43;3.42;;;12.30;99.90;;;;;;4993899;28;20084;-84
2023/06/07 05:28:56;;;;;;;21.48;11.02;;;12.40;99.90;;;;;;5013425;28;20418;-82
2023/06/07 05:31:22;;;;;;;54.72;31.92;;;12.50;99.90;;;;;;4979158;28;20044;-83
2023/06/07 05:33:48;;;;;;;11.65;4.15;;;12.40;99.90;;;;;;4977908;28;20085;-83
2023/06/07 05:36:14;;;;;;;13.15;3.05;;;12.40;99.90;;;;;;4994239;28;20387;-81
2023/06/07 05:38:40;;;;;;;9.35;3.20;;;12.40;99.90;;;;;;5010653;28;20060;-84
2023/06/07 05:41:07;;;;;;;10.52;2.85;;;12.50;99.90;;;;;;5013095;28;20045;-84
2023/06/07 05:43:32;;;;;;;10.80;3.45;;;12.50;99.90;;;;;;4994202;28;20064;-81
2023/06/07 05:45:58;;;;;;;11.60;3.30;;;12.30;99.90;;;;;;5011565;28;20061;-83
2023/06/07 05:48:23;;;;;;;14.60;3.58;;;12.50;99.90;;;;;;5011297;28;20048;-82
2023/06/07 05:50:49;;;;;;;10.55;2.90;;;13.00;99.90;;;;;;5010573;28;20050;-83
2023/06/07 05:53:16;;;;;;;15.80;3.58;;;13.70;99.90;;;;;;5010313;28;20065;-82
2023/06/07 05:55:42;;;;;;;13.85;3.65;;;12.50;99.90;;;;;;4993018;28;20057;-81
2023/06/07 05:58:07;;;;;;;13.20;3.20;;;12.80;99.90;;;;;;4993746;28;20077;-81
2023/06/07 06:00:34;;;;;;;12.88;3.35;;;12.60;99.90;;;;;;5012539;28;20081;-84
2023/06/07 06:03:04;;;;;;;29.60;14.52;;;12.60;99.90;;;;;;4994058;28;20382;-84
2023/06/07 06:05:29;;;;;;;10.23;4.13;;;12.60;99.90;;;;;;5010639;28;20057;-81
2023/06/07 06:07:56;;;;;;;11.27;3.25;;;12.60;99.90;;;;;;4993205;28;20049;-83
2023/06/07 06:10:22;;;;;;;12.98;3.20;;;13.30;99.90;;;;;;5010527;28;20046;-83
2023/06/07 06:12:48;;;;;;;10.63;3.28;;;12.70;99.90;;;;;;5009943;28;20080;-82
2023/06/07 06:15:14;;;;;;;11.20;3.45;;;12.80;99.90;;;;;;5011157;28;20034;-82
2023/06/07 06:17:40;;;;;;;7.93;3.00;;;12.80;99.90;;;;;;5015100;28;20073;-84
2023/06/07 06:20:07;;;;;;;15.43;3.10;;;13.30;99.90;;;;;;5003916;28;20050;-82
2023/06/07 06:22:33;;;;;;;15.07;3.03;;;12.90;99.90;;;;;;5016408;28;20046;-80
2023/06/07 06:24:59;;;;;;;6.97;2.83;;;12.90;99.90;;;;;;5010882;28;20045;-82
2023/06/07 06:27:24;;;;;;;11.57;3.00;;;12.90;99.90;;;;;;5009867;28;20081;-81
2023/06/07 06:29:50;;;;;;;8.77;3.13;;;12.90;99.90;;;;;;4992555;28;20432;-83
2023/06/07 06:32:16;;;;;;;12.82;3.15;;;12.90;99.90;;;;;;5010457;28;20034;-84
2023/06/07 06:34:41;;;;;;;9.63;2.40;;;14.50;99.90;;;;;;4991711;28;20498;-82
2023/06/07 06:37:07;;;;;;;11.75;3.00;;;12.90;99.90;;;;;;5010290;28;20038;-82
2023/06/07 06:39:33;;;;;;;14.60;3.33;;;12.90;99.90;;;;;;5009305;28;20188;-82
2023/06/07 06:41:58;;;;;;;16.05;2.88;;;14.40;99.90;;;;;;5009300;28;20046;-82
2023/06/07 06:44:24;;;;;;;16.48;3.08;;;13.00;99.90;;;;;;4992254;28;20046;-86
2023/06/07 06:46:49;;;;;;;11.52;3.60;;;13.00;99.90;;;;;;5009729;28;20045;-84
2023/06/07 06:49:16;;;;;;;8.73;2.92;;;13.00;99.90;;;;;;5009813;28;20046;-83
2023/06/07 06:51:41;;;;;;;10.18;2.90;;;13.10;99.90;;;;;;5009330;28;20567;-84
2023/06/07 06:54:07;;;;;;;12.70;3.40;;;13.10;99.90;;;;;;5009951;28;20058;-85
2023/06/07 06:56:34;;;;;;;9.70;2.83;;;13.20;99.90;;;;;;5008637;28;20048;-82
2023/06/07 06:58:59;;;;;;;11.93;2.92;;;13.20;99.90;;;;;;4991685;28;20481;-82
2023/06/07 07:01:45;;;;;;;15.20;3.80;;;13.30;99.90;;;;;;5008249;28;20126;-81
2023/06/07 07:04:12;;;;;;;14.63;3.47;;;13.30;99.90;;;;;;4984431;28;20040;-84
2023/06/07 07:06:38;;;;;;;14.55;3.67;;;14.80;99.90;;;;;;5009256;28;20103;-85
2023/06/07 07:09:04;;;;;;;11.55;3.47;;;13.30;99.90;;;;;;4991348;28;20417;-81
2023/06/07 07:11:30;;;;;;;11.55;3.15;;;14.80;99.90;;;;;;4991663;28;20048;-81
2023/06/07 07:13:56;;;;;;;10.95;3.00;;;13.80;99.90;;;;;;5009378;28;20085;-81
2023/06/07 07:16:22;;;;;;;10.40;3.17;;;13.40;99.90;;;;;;4991191;28;20250;-84
2023/06/07 07:18:47;;;;;;;17.75;4.00;;;14.30;99.90;;;;;;5009175;28;20133;-81
2023/06/07 07:21:13;;;;;;;9.55;3.22;;;13.50;99.90;;;;;;5009352;28;20383;-81
2023/06/07 07:23:38;;;;;;;8.50;2.92;;;14.10;99.90;;;;;;4991032;28;20532;-85
2023/06/07 07:26:05;;;;;;;10.23;3.28;;;13.30;99.90;;;;;;5009445;28;20124;-81
2023/06/07 07:28:30;;;;;;;13.23;3.60;;;15.00;99.90;;;;;;5009402;28;20153;-83
2023/06/07 07:30:56;;;;;;;9.07;3.25;;;13.40;99.90;;;;;;4991095;28;20331;-85
2023/06/07 07:33:21;;;;;;;9.15;3.28;;;13.40;99.90;;;;;;5009382;28;20045;-84
2023/06/07 07:35:47;;;;;;;12.38;3.08;;;13.30;99.90;;;;;;5009514;28;20493;-83
2023/06/07 07:38:15;;;;;;;11.85;2.67;;;13.40;99.90;;;;;;5008574;28;20044;-81
2023/06/07 07:40:43;;;;;;;16.08;3.63;;;14.20;99.90;;;;;;4990961;28;20058;-81
2023/06/07 07:43:10;;;;;;;9.68;3.20;;;13.40;99.90;;;;;;5009146;28;20045;-83
2023/06/07 07:45:36;;;;;;;10.35;2.97;;;13.60;99.90;;;;;;5008065;28;20053;-83
2023/06/07 07:48:02;;;;;;;14.55;3.03;;;13.60;99.90;;;;;;5009307;28;20536;-82
2023/06/07 07:50:29;;;;;;;12.38;2.97;;;13.70;99.90;;;;;;5008180;28;20078;-84
2023/06/07 07:52:56;;;;;;;8.57;3.22;;;14.90;99.90;;;;;;5008778;28;20387;-82
2023/06/07 07:55:23;;;;;;;7.80;2.85;;;13.80;99.90;;;;;;4991791;28;20481;-80
2023/06/07 07:57:49;;;;;;;10.88;3.28;;;13.70;99.90;;;;;;5008599;28;20167;-82
2023/06/07 08:00:16;;;;;;;13.70;2.92;;;13.80;99.90;;;;;;5009800;28;20050;-83
2023/06/07 08:02:41;;;;;;;8.75;2.92;;;13.80;99.90;;;;;;5009394;28;20074;-84
2023/06/07 08:05:08;;;;;;;15.73;3.67;;;15.00;99.90;;;;;;5009197;28;20132;-81
2023/06/07 08:07:34;;;;;;;13.50;3.28;;;13.80;99.90;;;;;;4995024;28;20537;-82
2023/06/07 08:10:00;;;;;;;10.20;2.90;;;13.80;99.90;;;;;;5018576;28;20041;-82
2023/06/07 08:12:25;;;;;;;7.93;2.92;;;14.60;99.90;;;;;;5016838;28;20497;-82
2023/06/07 08:14:51;;;;;;;10.20;3.40;;;13.90;99.90;;;;;;4996021;28;20464;-82
2023/06/07 08:17:18;;;;;;;8.63;2.92;;;14.80;99.90;;;;;;4995611;28;20042;-82
2023/06/07 08:19:43;;;;;;;6.00;2.63;;;15.10;99.90;;;;;;5012041;28;20053;-82
2023/06/07 08:22:09;;;;;;;13.15;3.22;;;15.40;99.90;;;;;;5012964;28;20045;-84
2023/06/07 08:24:35;;;;;;;13.02;3.35;;;15.40;99.90;;;;;;5012253;28;20096;-81
2023/06/07 08:27:00;;;;;;;16.45;3.50;;;14.00;99.90;;;;;;5011910;28;20046;-82
2023/06/07 08:29:26;;;;;;;9.93;3.05;;;14.20;99.90;;;;;;4994602;28;20049;-84
2023/06/07 08:31:53;;;;;;;12.63;3.30;;;14.00;99.90;;;;;;5012273;28;20196;-81
2023/06/07 08:34:20;;;;;;;15.10;3.20;;;14.00;99.90;;;;;;4989050;28;20050;-77
2023/06/07 08:36:47;;;;;;;11.52;3.33;;;14.10;99.90;;;;;;5010735;28;20042;-76
2023/06/07 08:39:13;;;;;;;9.75;3.08;;;14.10;99.90;;;;;;5002570;28;20510;-76
2023/06/07 08:41:39;;;;;;;9.70;3.42;;;14.20;99.90;;;;;;4985046;28;20033;-77
2023/06/07 08:44:05;;;;;;;10.00;3.22;;;15.80;99.90;;;;;;5012281;28;20044;-76
2023/06/07 08:46:31;;;;;;;17.23;3.17;;;14.80;99.90;;;;;;5012034;28;20559;-78
2023/06/07 08:48:59;;;;;;;7.05;3.30;;;14.60;99.90;;;;;;5004369;28;20510;-77
2023/06/07 08:51:27;;;;;;;12.43;3.25;;;14.40;99.90;;;;;;5010204;28;20545;-77
2023/06/07 08:53:55;;;;;;;8.00;2.80;;;14.90;99.90;;;;;;4993189;28;20108;-77
2023/06/07 08:56:23;;;;;;;8.05;2.83;;;14.50;99.90;;;;;;5011110;28;20125;-77
2023/06/07 08:58:50;;;;;;;10.98;3.35;;;15.60;99.90;;;;;;5011155;28;20100;-76
2023/06/07 09:01:16;;;;;;;14.48;3.40;;;15.00;99.90;;;;;;4992893;28;20104;-77
2023/06/07 09:03:42;;;;;;;9.93;3.47;;;14.60;99.90;;;;;;5010494;28;20544;-78
2023/06/07 09:06:08;;;;;;;9.48;3.20;;;14.60;99.90;;;;;;5011774;28;20045;-77
2023/06/07 09:08:34;;;;;;;16.23;3.85;;;14.60;99.90;;;;;;5010948;28;20498;-77
2023/06/07 09:11:00;;;;;;;10.30;2.85;;;14.70;99.90;;;;;;5011347;28;20041;-78
2023/06/07 09:13:26;;;;;;;11.32;3.33;;;15.90;99.90;;;;;;5012070;28;20033;-77
2023/06/07 09:15:52;;;;;;;12.73;3.95;;;16.20;99.90;;;;;;5011069;28;20262;-77
2023/06/07 09:18:18;;;;;;;17.70;3.78;;;14.80;99.90;;;;;;5011589;28;20410;-77
2023/06/07 09:20:44;;;;;;;13.95;3.75;;;14.90;99.90;;;;;;5010582;28;20042;-76
2023/06/07 09:23:14;;;;;;;10.25;3.40;;;14.90;99.90;;;;;;5010015;28;20038;-78
2023/06/07 09:25:44;;;;;;;14.20;3.50;;;15.00;99.90;;;;;;5011008;28;20144;-77
2023/06/07 09:28:14;;;;;;;10.98;3.83;;;15.00;99.90;;;;;;5011697;28;20034;-78
2023/06/07 09:30:56;;;;;;;11.88;4.05;;;15.00;99.90;;;;;;4992846;28;20121;-78
2023/06/07 09:33:30;;;;;;;11.30;3.67;;;15.10;99.90;;;;;;5011214;28;20049;-78
2023/06/07 09:36:12;;;;;;;11.90;3.42;;;15.10;99.90;;;;;;5010824;28;20041;-78
2023/06/07 09:38:38;;;;;;;17.25;3.88;;;15.20;99.90;;;;;;5004551;28;20069;-78
2023/06/07 09:41:06;;;;;;;9.27;3.40;;;15.80;99.90;;;;;;4993602;28;20091;-77
2023/06/07 09:43:41;;;;;;;8.57;3.70;;;15.30;99.90;;;;;;5010416;28;20495;-77
2023/06/07 09:46:07;;;;;;;10.18;4.05;;;15.30;99.90;;;;;;5011233;28;20136;-78
2023/06/07 09:48:47;;;;;;;15.40;4.07;;;16.70;99.90;;;;;;4993088;28;20093;-78
2023/06/07 09:51:13;;;;;;;13.52;3.75;;;15.40;99.90;;;;;;4992876;28;20042;-78
2023/06/07 09:53:52;;;;;;;11.52;3.72;;;15.40;99.90;;;;;;4993221;28;20053;-77
2023/06/07 09:56:21;;;;;;;16.35;4.28;;;15.60;99.90;;;;;;5015212;28;20061;-78
2023/06/07 09:58:49;;;;;;;16.05;3.70;;;17.40;99.90;;;;;;5019908;28;20038;-79
2023/06/07 10:01:34;;;;;;;9.35;2.90;;;15.70;99.90;;;;;;5015935;28;20065;-78
2023/06/07 10:04:02;;;;;;;10.63;3.60;;;15.80;99.90;;;;;;5012036;28;20034;-80
2023/06/07 10:06:33;;;;;;;10.30;3.40;;;16.60;99.90;;;;;;5008372;28;20041;-79
2023/06/07 10:09:03;;;;;;;12.88;4.63;;;14.50;99.90;;;;;;5010950;28;20040;-79
2023/06/07 10:11:31;;;;;;;10.25;4.60;;;16.90;99.90;;;;;;4990249;28;20053;-79
2023/06/07 10:13:57;;;;;;;12.57;4.35;;;16.00;99.90;;;;;;5010572;28;20117;-78
2023/06/07 10:16:28;;;;;;;12.70;4.55;;;16.50;99.90;;;;;;4992518;28;20131;-79
2023/06/07 10:18:58;;;;;;;11.18;4.78;;;17.80;99.90;;;;;;4991527;28;20088;-78
2023/06/07 10:21:25;;;;;;;18.27;5.05;;;15.60;99.90;;;;;;5007915;28;20034;-78
2023/06/07 10:23:55;;;;;;;12.10;4.68;;;16.80;99.90;;;;;;4992984;28;20044;-79
2023/06/07 10:26:56;;;;;;;11.35;4.90;;;16.30;99.90;;;;;;4992059;28;20038;-80
2023/06/07 10:29:38;;;;;;;15.00;5.13;;;16.40;99.90;;;;;;5011380;28;20111;-80
2023/06/07 10:32:21;;;;;;;10.18;4.38;;;16.50;99.90;;;;;;5010200;28;20038;-80
2023/06/07 10:34:48;;;;;;;14.75;4.32;;;15.60;99.90;;;;;;4985813;28;20053;-79
2023/06/07 10:37:14;;;;;;;11.38;4.38;;;16.60;99.90;;;;;;5009773;28;20505;-79
2023/06/07 10:39:40;;;;;;;12.25;4.53;;;16.70;99.90;;;;;;5008118;28;20042;-80
2023/06/07 10:42:06;;;;;;;14.63;4.63;;;18.30;99.90;;;;;;5005710;28;20034;-79
2023/06/07 10:44:33;;;;;;;14.73;3.95;;;16.80;99.90;;;;;;5003554;28;20041;-79
2023/06/07 10:47:22;;;;;;;12.05;3.83;;;17.00;99.90;;;;;;4990946;28;20482;-80
2023/06/07 10:49:49;;;;;;;14.00;4.35;;;17.10;99.90;;;;;;4975110;28;20058;-80
2023/06/07 10:52:15;;;;;;;10.73;3.75;;;17.30;99.90;;;;;;4987954;28;20548;-79
2023/06/07 10:54:42;;;;;;;12.98;3.97;;;17.20;99.90;;;;;;5006667;28;20069;-81
2023/06/07 10:57:09;;;;;;;14.73;3.95;;;17.30;99.90;;;;;;5009391;28;20517;-78
2023/06/07 10:59:36;;;;;;;11.35;4.05;;;17.40;99.90;;;;;;4995376;28;20128;-79
2023/06/07 11:02:29;;;;;;;10.52;4.28;;;17.50;99.90;;;;;;4988548;28;20042;-79
2023/06/07 11:04:59;;;;;;;13.13;3.72;;;17.60;99.90;;;;;;5009369;28;20076;-79
2023/06/07 11:07:28;;;;;;;15.32;5.15;;;17.70;99.90;;;;;;5004772;28;20509;-78
2023/06/07 11:10:17;;;;;;;11.32;4.57;;;17.80;99.90;;;;;;5005418;28;20188;-79
2023/06/07 11:12:45;;;;;;;10.65;4.45;;;17.80;99.90;;;;;;5003843;28;20173;-78
2023/06/07 11:15:17;;;;;;;9.85;4.05;;;19.20;99.90;;;;;;5005023;28;20061;-80
2023/06/07 11:17:50;;;;;;;12.27;4.78;;;18.10;99.90;;;;;;5002431;28;20044;-80
2023/06/07 11:20:35;;;;;;;14.80;5.60;;;18.90;99.90;;;;;;4986994;28;20124;-79
2023/06/07 11:23:29;;;;;;;13.63;5.43;;;18.40;99.90;;;;;;5007115;28;20062;-79
2023/06/07 11:25:59;;;;;;;17.08;5.03;;;18.50;99.90;;;;;;5005430;28;20042;-80
2023/06/07 11:28:31;;;;;;;12.60;4.97;;;18.60;99.90;;;;;;5005741;28;20264;-79
2023/06/07 11:30:58;;;;;;;16.50;4.90;;;18.80;99.90;;;;;;5002530;28;20045;-79
2023/06/07 11:33:25;;;;;;;12.02;4.63;;;18.90;99.90;;;;;;4991216;28;20104;-79
2023/06/07 11:35:51;;;;;;;13.35;4.63;;;19.00;99.90;;;;;;5008028;28;20200;-79
2023/06/07 11:38:18;;;;;;;8.82;3.88;;;19.10;99.90;;;;;;4989044;28;20057;-77
2023/06/07 11:40:44;;;;;;;12.48;4.80;;;19.20;99.90;;;;;;5000555;28;20409;-79
2023/06/07 11:43:11;;;;;;;5.95;3.60;;;19.20;99.90;;;;;;4999067;28;20030;-79
2023/06/07 11:45:42;;;;;;;11.40;3.75;;;19.30;99.90;;;;;;5016453;28;20038;-80
2023/06/07 11:48:09;;;;;;;15.30;4.85;;;19.50;99.90;;;;;;5015305;28;20052;-81
2023/06/07 11:50:37;;;;;;;13.32;4.43;;;19.60;99.90;;;;;;5012231;28;20045;-80
2023/06/07 11:53:03;;;;;;;13.30;4.28;;;19.70;99.90;;;;;;4989440;28;20046;-80
2023/06/07 11:55:29;;;;;;;14.43;4.22;;;19.70;99.90;;;;;;4982779;28;20046;-82
2023/06/07 11:57:55;;;;;;;9.43;3.20;;;19.90;99.90;;;;;;4987847;28;20101;-83
2023/06/07 12:00:23;;;;;;;9.85;3.72;;;20.10;99.90;;;;;;4987453;28;20053;-82
2023/06/07 12:02:50;;;;;;;10.77;3.42;;;20.20;99.90;;;;;;4983753;28;20043;-82
2023/06/07 12:05:17;;;;;;;11.13;3.90;;;20.30;99.90;;;;;;4983211;28;20046;-82
2023/06/07 12:07:43;;;;;;;9.70;3.42;;;20.30;99.90;;;;;;4982707;28;20049;-80
2023/06/07 12:10:10;;;;;;;10.73;3.45;;;20.50;99.90;;;;;;4987533;28;20556;-81
2023/06/07 12:12:37;;;;;;;13.98;3.75;;;20.50;99.90;;;;;;4979485;28;20086;-81
2023/06/07 12:15:06;;;;;;;13.80;3.78;;;20.50;99.90;;;;;;4987618;28;20042;-82
2023/06/07 12:17:36;;;;;;;9.85;3.33;;;20.60;99.90;;;;;;4985509;28;20046;-81
2023/06/07 12:20:11;;;;;;;9.68;3.15;;;20.70;99.90;;;;;;4983559;28;20038;-82
2023/06/07 12:22:40;;;;;;;10.80;3.53;;;20.90;99.90;;;;;;4985212;28;20035;-82
2023/06/07 12:25:12;;;;;;;11.23;3.15;;;21.00;99.90;;;;;;4986917;28;20081;-82
2023/06/07 12:27:37;;;;;;;9.20;3.53;;;21.10;99.90;;;;;;4983616;28;20035;-82
2023/06/07 12:30:07;;;;;;;9.50;3.75;;;21.10;99.90;;;;;;4984052;28;20090;-82
2023/06/07 12:32:33;;;;;;;9.55;3.28;;;21.20;99.90;;;;;;4982847;28;20042;-82
2023/06/07 12:35:01;;;;;;;12.60;3.45;;;21.40;99.90;;;;;;4986357;28;20030;-81
2023/06/07 12:37:27;;;;;;;11.65;3.78;;;21.50;99.90;;;;;;4987369;28;20042;-82
2023/06/07 12:39:53;;;;;;;7.60;3.80;;;21.70;99.90;;;;;;4983505;28;20490;-83
2023/06/07 12:42:18;;;;;;;9.98;4.05;;;21.60;99.90;;;;;;4984014;28;20050;-80